Madison, TN (37116)

5:45 PM CDT on March 26, 2015 (GMT -0500)
South Inglewood | | Change Station
CLOSE
Current Station
Personal Weather Station
Location: Nashville, TN
Elevation: 535 ft
Nearby Weather Stations
Active Advisory: Freeze Watch

Elev 535 ft 36.20 °N, 86.72 °W | Updated 2 minutes ago

Overcast
Overcast
45.0 °F
Feels Like 43 °F
N
4.2
Wind Variable Wind from NE

Today
High -- | Low -- °F
--% Chance of Precip.
Yesterday
High -- | Low -- °F
Precip. -- in
6:42 AM 7:03 PM
Waxing Crescent, 46% visible
Pressure 29.94 in
Visibility 5.0 miles
Clouds Scattered Clouds 1400 ft
Mostly Cloudy 3200 ft
Overcast 7000 ft
Windchill 43 °F
Dew Point 45 °F
Humidity 99%
Rainfall 0.25 in
Snow Depth Not available.
UV 0 out of 12
Pollen 6.10 out of 12
Air Quality Not available.
Flu Activity Not available.
SPECI KBNA 262238Z 36013G21KT 5SM RA BR SCT014 BKN032 OVC070 07/05 A2994 RMK AO2 RAB26 P0002

More Conditions Fewer Conditions

Pressure 29.94 in
Visibility 5.0 miles
Clouds Scattered Clouds 1400 ft
Mostly Cloudy 3200 ft
Overcast 7000 ft
Windchill 43 °F
Dew Point 45 °F
Humidity 99%
Rainfall 0.25 in
Snow Depth Not available.
UV 0 out of 12
Pollen 6.10 out of 12
Air Quality Not available.
Flu Activity Not available.
SPECI KBNA 262238Z 36013G21KT 5SM RA BR SCT014 BKN032 OVC070 07/05 A2994 RMK AO2 RAB26 P0002

More Conditions Fewer Conditions

10-Day Weather Forecast

Almanac

Astronomy

Mar. 26, 2015 Rise Set
Actual Time
Civil Twilight
Nautical Twilight
Astronomical Twilight
Moon
Length of Visible Light
Length of Day
Tomorrow will be .
, % of the Moon is Illuminated

Today's Extremes

State Highs State Lows

Community

WunderPhotos

Upload Photos

1,808,629 photos uploaded!

WunderBlogs® & News

Nearby

Air Quality

  Air Quality AQ Index Pollutant
Not available.

Snow Depth

Station Depth Elevation

Earthquake Activity

City Distance Mag. Time & Date
Minimum magnitude displayed is 2.5.

Coastal Water Temperatures

Place Temperature

Stations

Nearby Weather Stations

Station Location Temp. Windchill Dew Point Humidity Wind Precip. Elev Updated Type
                   
Freeze Watch
Statement as of 12:41 PM CDT on March 26, 2015

... Freeze watch in effect from late Friday night through Saturday
morning...

The National Weather Service in Nashville has issued a freeze
watch... which is in effect from late Friday night through
Saturday morning.

* Temperature... 22 degrees to 30 degrees.

* Impacts... sensitive vegetation may be killed or damaged.

Precautionary/preparedness actions...

A freeze watch means sub-freezing temperatures are possible.
These conditions could kill crops and other sensitive vegetation.


Boyd
01